createdAt,value
2022-10-22T00:00:07.144Z,1015.08
2022-10-22T00:00:37.694Z,1015.08
2022-10-22T00:01:08.306Z,1015.08
2022-10-22T00:01:39.311Z,1015.08
2022-10-22T00:02:09.858Z,1015.10
2022-10-22T00:02:40.485Z,1015.11
2022-10-22T00:03:11.095Z,1015.11
2022-10-22T00:03:41.725Z,1015.12
2022-10-22T00:04:12.288Z,1015.12
2022-10-22T00:04:42.843Z,1015.12
2022-10-22T00:05:13.438Z,1015.13
2022-10-22T00:05:44.000Z,1015.13
2022-10-22T00:06:14.578Z,1015.13
2022-10-22T00:06:45.152Z,1015.13
2022-10-22T00:07:15.721Z,1015.12
2022-10-22T00:07:46.273Z,1015.14
2022-10-22T00:08:17.012Z,1015.14
2022-10-22T00:08:47.629Z,1015.15
2022-10-22T00:09:18.338Z,1015.16
2022-10-22T00:09:48.900Z,1015.18
2022-10-22T00:10:19.453Z,1015.18
2022-10-22T00:10:50.033Z,1015.20
2022-10-22T00:11:20.584Z,1015.20
2022-10-22T00:11:51.152Z,1015.21
2022-10-22T00:12:21.733Z,1015.20
2022-10-22T00:12:52.294Z,1015.20
2022-10-22T00:13:22.864Z,1015.20
2022-10-22T00:13:53.437Z,1015.19
2022-10-22T00:14:24.010Z,1015.18
2022-10-22T00:14:54.597Z,1015.18
2022-10-22T00:15:25.177Z,1015.19
2022-10-22T00:15:55.727Z,1015.20
2022-10-22T00:16:26.280Z,1015.20
2022-10-22T00:16:56.902Z,1015.23
2022-10-22T00:17:27.452Z,1015.25
2022-10-22T00:17:58.030Z,1015.27
2022-10-22T00:18:28.602Z,1015.29
2022-10-22T00:18:59.157Z,1015.32
2022-10-22T00:19:29.702Z,1015.32
2022-10-22T00:20:00.263Z,1015.33
2022-10-22T00:20:30.806Z,1015.34
2022-10-22T00:21:01.364Z,1015.34
2022-10-22T00:21:31.954Z,1015.32
2022-10-22T00:22:02.575Z,1015.32
2022-10-22T00:22:33.128Z,1015.30
2022-10-22T00:23:03.694Z,1015.31
2022-10-22T00:23:34.235Z,1015.29
2022-10-22T00:24:04.807Z,1015.31
2022-10-22T00:24:35.352Z,1015.30
2022-10-22T00:25:05.895Z,1015.29
2022-10-22T00:25:36.472Z,1015.29
2022-10-22T00:26:07.082Z,1015.30
2022-10-22T00:26:37.657Z,1015.30
2022-10-22T00:27:08.265Z,1015.31
2022-10-22T00:27:39.518Z,1015.31
2022-10-22T00:28:09.772Z,1015.32
2022-10-22T00:28:40.336Z,1015.33
2022-10-22T00:29:10.908Z,1015.34
2022-10-22T00:29:41.458Z,1015.35
2022-10-22T00:30:12.031Z,1015.39
2022-10-22T00:30:42.628Z,1015.40
2022-10-22T00:31:13.202Z,1015.42
2022-10-22T00:31:43.781Z,1015.45
2022-10-22T00:32:14.387Z,1015.48
2022-10-22T00:32:44.918Z,1015.49
2022-10-22T00:33:15.486Z,1015.51
2022-10-22T00:33:46.032Z,1015.53
2022-10-22T00:34:16.606Z,1015.54
2022-10-22T00:34:47.190Z,1015.54
2022-10-22T00:35:17.758Z,1015.54
2022-10-22T00:35:48.334Z,1015.55
2022-10-22T00:36:18.890Z,1015.54
2022-10-22T00:36:49.446Z,1015.53
2022-10-22T00:37:20.010Z,1015.53
2022-10-22T00:37:50.560Z,1015.53
2022-10-22T00:38:21.133Z,1015.53
2022-10-22T00:38:51.706Z,1015.52
2022-10-22T00:39:22.269Z,1015.52
2022-10-22T00:39:52.835Z,1015.52
2022-10-22T00:40:23.421Z,1015.51
2022-10-22T00:40:54.046Z,1015.51
2022-10-22T00:41:24.601Z,1015.51
2022-10-22T00:41:55.181Z,1015.50
2022-10-22T00:42:25.768Z,1015.48
2022-10-22T00:42:56.332Z,1015.47
2022-10-22T00:43:26.901Z,1015.46
2022-10-22T00:43:57.464Z,1015.44
2022-10-22T00:44:28.021Z,1015.44
2022-10-22T00:44:58.588Z,1015.44
2022-10-22T00:45:29.133Z,1015.41
2022-10-22T00:45:59.731Z,1015.40
2022-10-22T00:46:30.317Z,1015.39
2022-10-22T00:47:00.891Z,1015.38
2022-10-22T00:47:31.491Z,1015.36
2022-10-22T00:48:02.015Z,1015.35
2022-10-22T00:48:32.622Z,1015.34
2022-10-22T00:49:03.203Z,1015.32
2022-10-22T00:49:33.767Z,1015.32
2022-10-22T00:50:34.930Z,1015.30
2022-10-22T00:51:05.505Z,1015.29
2022-10-22T00:51:36.068Z,1015.28
2022-10-22T00:52:06.635Z,1015.27
2022-10-22T00:52:37.359Z,1015.25
2022-10-22T00:53:07.955Z,1015.25
2022-10-22T00:53:38.527Z,1015.25
2022-10-22T00:54:09.094Z,1015.25
2022-10-22T00:54:39.649Z,1015.26
2022-10-22T00:55:10.223Z,1015.27
2022-10-22T00:55:40.754Z,1015.28
2022-10-22T00:56:11.341Z,1015.29
2022-10-22T00:56:41.912Z,1015.29
2022-10-22T00:57:12.495Z,1015.30
2022-10-22T00:57:43.033Z,1015.30
2022-10-22T00:58:13.618Z,1015.31
2022-10-22T00:58:44.192Z,1015.31
2022-10-22T00:59:14.751Z,1015.34
2022-10-22T00:59:45.319Z,1015.36
2022-10-22T01:00:15.872Z,1015.39
2022-10-22T01:00:46.552Z,1015.42
2022-10-22T01:01:17.176Z,1015.45
2022-10-22T01:01:47.733Z,1015.48
2022-10-22T01:02:18.289Z,1015.49
2022-10-22T01:02:48.905Z,1015.51
2022-10-22T01:03:19.478Z,1015.52
2022-10-22T01:03:50.028Z,1015.54
2022-10-22T01:04:20.613Z,1015.55
2022-10-22T01:04:51.184Z,1015.56
2022-10-22T01:05:21.715Z,1015.56
2022-10-22T01:05:52.305Z,1015.57
2022-10-22T01:06:22.895Z,1015.59
2022-10-22T01:06:53.474Z,1015.60
2022-10-22T01:07:24.055Z,1015.61
2022-10-22T01:07:54.638Z,1015.62
2022-10-22T01:08:25.267Z,1015.62
2022-10-22T01:08:55.918Z,1015.63
2022-10-22T01:09:26.481Z,1015.62
2022-10-22T01:09:57.013Z,1015.62
2022-10-22T01:10:27.569Z,1015.61
2022-10-22T01:10:58.150Z,1015.60
2022-10-22T01:11:28.729Z,1015.61
2022-10-22T01:11:59.282Z,1015.60
2022-10-22T01:12:29.828Z,1015.60
2022-10-22T01:13:00.398Z,1015.59
2022-10-22T01:13:30.958Z,1015.58
2022-10-22T01:14:01.489Z,1015.57
2022-10-22T01:14:32.103Z,1015.58
2022-10-22T01:15:02.656Z,1015.56
2022-10-22T01:15:33.221Z,1015.55
2022-10-22T01:16:03.787Z,1015.53
2022-10-22T01:16:34.332Z,1015.53
2022-10-22T01:17:04.876Z,1015.53
2022-10-22T01:17:35.424Z,1015.52
2022-10-22T01:18:06.042Z,1015.50
2022-10-22T01:18:36.587Z,1015.48
2022-10-22T01:19:07.178Z,1015.46
2022-10-22T01:19:37.727Z,1015.43
2022-10-22T01:20:08.300Z,1015.40
2022-10-22T01:20:38.856Z,1015.39
2022-10-22T01:21:09.415Z,1015.38
2022-10-22T01:21:39.990Z,1015.37
2022-10-22T01:22:10.572Z,1015.36
2022-10-22T01:22:41.120Z,1015.37
2022-10-22T01:23:11.704Z,1015.38
2022-10-22T01:23:42.289Z,1015.39
2022-10-22T01:24:12.900Z,1015.39
2022-10-22T01:24:43.458Z,1015.40
2022-10-22T01:25:14.015Z,1015.38
2022-10-22T01:25:44.600Z,1015.38
2022-10-22T01:26:15.281Z,1015.36
2022-10-22T01:26:45.852Z,1015.33
2022-10-22T01:27:16.421Z,1015.32
2022-10-22T01:27:46.958Z,1015.30
2022-10-22T01:28:17.645Z,1015.28
2022-10-22T01:28:48.218Z,1015.28
2022-10-22T01:29:18.808Z,1015.27
2022-10-22T01:29:49.359Z,1015.24
2022-10-22T01:30:19.927Z,1015.23
2022-10-22T01:30:50.478Z,1015.23
2022-10-22T01:31:21.054Z,1015.21
2022-10-22T01:31:51.633Z,1015.20
2022-10-22T01:32:22.202Z,1015.21
2022-10-22T01:32:52.774Z,1015.22
2022-10-22T01:33:23.361Z,1015.25
2022-10-22T01:33:53.883Z,1015.27
2022-10-22T01:34:24.461Z,1015.30
2022-10-22T01:34:55.045Z,1015.32
2022-10-22T01:35:25.648Z,1015.34
2022-10-22T01:35:56.196Z,1015.36
2022-10-22T01:36:26.741Z,1015.38
2022-10-22T01:36:57.354Z,1015.40
2022-10-22T01:37:27.937Z,1015.43
2022-10-22T01:37:58.481Z,1015.42
2022-10-22T01:38:29.056Z,1015.42
2022-10-22T01:38:59.612Z,1015.43
2022-10-22T01:39:30.188Z,1015.43
2022-10-22T01:40:00.766Z,1015.41
2022-10-22T01:40:31.349Z,1015.42
2022-10-22T01:41:01.894Z,1015.42
2022-10-22T01:41:32.444Z,1015.43
2022-10-22T01:42:03.039Z,1015.46
2022-10-22T01:42:33.625Z,1015.47
2022-10-22T01:43:04.161Z,1015.51
2022-10-22T01:43:34.694Z,1015.52
2022-10-22T01:44:05.278Z,1015.54
2022-10-22T01:45:06.377Z,1015.60
2022-10-22T01:45:36.946Z,1015.60
2022-10-22T01:46:07.503Z,1015.65
2022-10-22T01:46:38.052Z,1015.60
2022-10-22T01:47:08.636Z,1015.60
2022-10-22T01:47:39.742Z,1015.59
2022-10-22T01:48:09.966Z,1015.60
2022-10-22T01:48:40.578Z,1015.61
2022-10-22T01:49:11.137Z,1015.64
2022-10-22T01:49:41.690Z,1015.64
2022-10-22T01:50:12.238Z,1015.68
2022-10-22T01:50:42.838Z,1015.69
2022-10-22T01:51:13.419Z,1015.73
2022-10-22T01:51:43.983Z,1015.76
2022-10-22T01:52:14.581Z,1015.76
2022-10-22T01:52:45.140Z,1015.78
2022-10-22T01:53:15.688Z,1015.78
2022-10-22T01:53:46.307Z,1015.79
2022-10-22T01:54:17.261Z,1015.77
2022-10-22T01:54:47.826Z,1015.76
2022-10-22T01:55:18.395Z,1015.74
2022-10-22T01:55:48.946Z,1015.74
2022-10-22T01:56:19.521Z,1015.74
2022-10-22T01:56:50.096Z,1015.75
2022-10-22T01:57:20.679Z,1015.77
2022-10-22T01:57:51.232Z,1015.76
2022-10-22T01:58:21.815Z,1015.76
2022-10-22T01:58:52.367Z,1015.77
2022-10-22T01:59:22.946Z,1015.79
2022-10-22T01:59:53.528Z,1015.77
2022-10-22T02:00:24.259Z,1015.81
2022-10-22T02:00:54.956Z,1015.78
2022-10-22T02:01:25.513Z,1015.76
2022-10-22T02:01:56.095Z,1015.75
2022-10-22T02:02:26.682Z,1015.75
2022-10-22T02:02:57.263Z,1015.73
2022-10-22T02:03:27.810Z,1015.74
2022-10-22T02:03:58.413Z,1015.73
2022-10-22T02:04:28.960Z,1015.76
2022-10-22T02:04:59.480Z,1015.76
2022-10-22T02:05:30.042Z,1015.81
2022-10-22T02:06:00.623Z,1015.81
2022-10-22T02:06:31.154Z,1015.83
2022-10-22T02:07:01.708Z,1015.83
2022-10-22T02:07:32.266Z,1015.85
2022-10-22T02:08:02.838Z,1015.85
2022-10-22T02:08:33.458Z,1015.87
2022-10-22T02:09:04.159Z,1015.90
2022-10-22T02:09:34.757Z,1015.88
2022-10-22T02:10:05.324Z,1015.90
2022-10-22T02:10:35.900Z,1015.89
2022-10-22T02:11:06.452Z,1015.90
2022-10-22T02:11:36.983Z,1015.91
2022-10-22T02:12:07.897Z,1015.90
2022-10-22T02:12:38.826Z,1015.91
2022-10-22T02:13:09.087Z,1015.91
2022-10-22T02:13:39.613Z,1015.91
2022-10-22T02:14:10.208Z,1015.88
2022-10-22T02:14:40.812Z,1015.90
2022-10-22T02:15:11.374Z,1015.88
2022-10-22T02:15:41.916Z,1015.85
2022-10-22T02:16:12.462Z,1015.87
2022-10-22T02:16:42.989Z,1015.90
2022-10-22T02:17:13.530Z,1015.91
2022-10-22T02:17:44.098Z,1015.91
2022-10-22T02:18:14.671Z,1015.94
2022-10-22T02:18:45.239Z,1015.98
2022-10-22T02:19:15.845Z,1015.98
2022-10-22T02:19:46.400Z,1015.98
2022-10-22T02:20:17.093Z,1015.99
2022-10-22T02:20:47.654Z,1016.01
2022-10-22T02:21:18.239Z,1015.96
2022-10-22T02:21:48.803Z,1015.97
2022-10-22T02:22:19.370Z,1015.96
2022-10-22T02:22:49.962Z,1015.94
2022-10-22T02:23:20.549Z,1015.96
2022-10-22T02:23:51.112Z,1015.94
2022-10-22T02:24:21.691Z,1015.93
2022-10-22T02:24:52.235Z,1015.92
2022-10-22T02:25:22.767Z,1015.92
2022-10-22T02:25:53.330Z,1015.91
2022-10-22T02:26:23.925Z,1015.92
2022-10-22T02:26:54.479Z,1015.91
2022-10-22T02:27:26.935Z,1015.89
2022-10-22T02:27:56.143Z,1015.89
2022-10-22T02:28:26.717Z,1015.87
2022-10-22T02:28:57.321Z,1015.88
2022-10-22T02:29:27.873Z,1015.88
2022-10-22T02:29:58.448Z,1015.88
2022-10-22T02:30:29.029Z,1015.89
2022-10-22T02:30:59.558Z,1015.89
2022-10-22T02:31:30.175Z,1015.88
2022-10-22T02:32:00.732Z,1015.88
2022-10-22T02:32:31.331Z,1015.88
2022-10-22T02:33:01.903Z,1015.88
2022-10-22T02:33:32.475Z,1015.87
2022-10-22T02:34:03.044Z,1015.87
2022-10-22T02:34:33.625Z,1015.86
2022-10-22T02:35:04.186Z,1015.85
2022-10-22T02:35:34.744Z,1015.84
2022-10-22T02:36:05.356Z,1015.83
2022-10-22T02:36:35.917Z,1015.82
2022-10-22T02:37:06.484Z,1015.81
2022-10-22T02:37:37.057Z,1015.80
2022-10-22T02:38:08.049Z,1015.79
2022-10-22T02:38:38.610Z,1015.78
2022-10-22T02:39:09.227Z,1015.77
2022-10-22T02:39:39.795Z,1015.76
2022-10-22T02:40:10.378Z,1015.76
2022-10-22T02:40:40.929Z,1015.75
2022-10-22T02:41:11.538Z,1015.74
2022-10-22T02:41:42.106Z,1015.72
2022-10-22T02:42:12.671Z,1015.71
2022-10-22T02:42:43.277Z,1015.69
2022-10-22T02:43:13.823Z,1015.67
2022-10-22T02:43:44.400Z,1015.65
2022-10-22T02:44:14.957Z,1015.63
2022-10-22T02:44:45.536Z,1015.63
2022-10-22T02:45:16.112Z,1015.63
2022-10-22T02:45:46.707Z,1015.65
2022-10-22T02:46:17.231Z,1015.67
2022-10-22T02:46:47.797Z,1015.70
2022-10-22T02:47:18.388Z,1015.73
2022-10-22T02:47:48.936Z,1015.75
2022-10-22T02:48:50.083Z,1015.81
2022-10-22T02:49:20.659Z,1015.83
2022-10-22T02:49:51.249Z,1015.83
2022-10-22T02:50:21.790Z,1015.84
2022-10-22T02:50:52.347Z,1015.85
2022-10-22T02:51:22.919Z,1015.83
2022-10-22T02:51:53.440Z,1015.81
2022-10-22T02:52:24.013Z,1015.80
2022-10-22T02:52:54.603Z,1015.79
2022-10-22T02:53:25.490Z,1015.79
2022-10-22T02:53:56.043Z,1015.80
2022-10-22T02:54:26.608Z,1015.82
2022-10-22T02:54:57.152Z,1015.83
2022-10-22T02:55:27.679Z,1015.85
2022-10-22T02:55:58.221Z,1015.86
2022-10-22T02:56:28.773Z,1015.86
2022-10-22T02:56:59.344Z,1015.87
2022-10-22T02:57:29.908Z,1015.87
2022-10-22T02:58:00.431Z,1015.86
2022-10-22T02:58:30.970Z,1015.84
2022-10-22T02:59:01.547Z,1015.83
2022-10-22T02:59:32.099Z,1015.82
2022-10-22T03:00:02.644Z,1015.81
2022-10-22T03:00:33.308Z,1015.80
2022-10-22T03:01:03.913Z,1015.78
2022-10-22T03:01:34.521Z,1015.79
2022-10-22T03:02:05.114Z,1015.79
2022-10-22T03:02:35.667Z,1015.81
2022-10-22T03:03:06.196Z,1015.81
2022-10-22T03:03:36.771Z,1015.83
2022-10-22T03:04:07.353Z,1015.85
2022-10-22T03:04:37.940Z,1015.87
2022-10-22T03:05:08.492Z,1015.89
2022-10-22T03:05:39.399Z,1015.91
2022-10-22T03:06:09.965Z,1015.95
2022-10-22T03:06:40.504Z,1015.98
2022-10-22T03:07:11.049Z,1016.02
2022-10-22T03:07:42.044Z,1016.03
2022-10-22T03:08:12.279Z,1016.05
2022-10-22T03:08:42.902Z,1016.06
2022-10-22T03:09:13.468Z,1016.06
2022-10-22T03:09:44.006Z,1016.06
2022-10-22T03:10:14.589Z,1016.05
2022-10-22T03:10:45.177Z,1016.06
2022-10-22T03:11:15.726Z,1016.07
2022-10-22T03:11:46.295Z,1016.08
2022-10-22T03:12:17.089Z,1016.10
2022-10-22T03:12:47.663Z,1016.12
2022-10-22T03:13:18.233Z,1016.13
2022-10-22T03:13:48.841Z,1016.13
2022-10-22T03:14:19.444Z,1016.13
2022-10-22T03:14:50.019Z,1016.11
2022-10-22T03:15:20.628Z,1016.11
2022-10-22T03:15:51.210Z,1016.08
2022-10-22T03:16:21.818Z,1016.07
2022-10-22T03:16:52.383Z,1016.06
2022-10-22T03:17:22.942Z,1016.04
2022-10-22T03:17:53.516Z,1016.06
2022-10-22T03:18:24.072Z,1016.08
2022-10-22T03:18:54.648Z,1016.08
2022-10-22T03:19:25.338Z,1016.11
2022-10-22T03:19:55.897Z,1016.13
2022-10-22T03:20:26.541Z,1016.17
2022-10-22T03:20:57.071Z,1016.19
2022-10-22T03:21:27.636Z,1016.22
2022-10-22T03:21:58.213Z,1016.24
2022-10-22T03:22:28.750Z,1016.25
2022-10-22T03:22:59.321Z,1016.26
2022-10-22T03:23:29.892Z,1016.26
2022-10-22T03:24:00.500Z,1016.25
2022-10-22T03:24:31.138Z,1016.24
2022-10-22T03:25:01.692Z,1016.22
2022-10-22T03:25:32.273Z,1016.21
2022-10-22T03:26:02.838Z,1016.20
2022-10-22T03:26:33.406Z,1016.21
2022-10-22T03:27:03.968Z,1016.21
2022-10-22T03:27:34.545Z,1016.21
2022-10-22T03:28:05.110Z,1016.24
2022-10-22T03:28:35.713Z,1016.25
2022-10-22T03:29:06.285Z,1016.25
2022-10-22T03:29:36.824Z,1016.25
2022-10-22T03:30:07.366Z,1016.23
2022-10-22T03:30:37.891Z,1016.22
2022-10-22T03:31:08.434Z,1016.20
2022-10-22T03:31:39.000Z,1016.17
2022-10-22T03:32:09.553Z,1016.15
2022-10-22T03:32:40.098Z,1016.17
2022-10-22T03:33:10.664Z,1016.19
2022-10-22T03:33:41.273Z,1016.20
2022-10-22T03:34:11.803Z,1016.21
2022-10-22T03:34:42.348Z,1016.22
2022-10-22T03:35:12.942Z,1016.23
2022-10-22T03:35:43.507Z,1016.21
2022-10-22T03:36:14.065Z,1016.21
2022-10-22T03:36:44.615Z,1016.20
2022-10-22T03:37:15.173Z,1016.21
2022-10-22T03:37:45.755Z,1016.21
2022-10-22T03:38:16.328Z,1016.21
2022-10-22T03:38:46.920Z,1016.21
2022-10-22T03:39:17.502Z,1016.23
2022-10-22T03:39:48.094Z,1016.23
2022-10-22T03:40:18.655Z,1016.23
2022-10-22T03:40:49.214Z,1016.21
2022-10-22T03:41:19.787Z,1016.17
2022-10-22T03:41:50.394Z,1016.18
2022-10-22T03:42:20.980Z,1016.17
2022-10-22T03:42:51.577Z,1016.16
2022-10-22T03:43:22.151Z,1016.13
2022-10-22T03:43:52.682Z,1016.13
2022-10-22T03:44:23.292Z,1016.13
2022-10-22T03:44:53.882Z,1016.13
2022-10-22T03:45:24.485Z,1016.12
2022-10-22T03:45:55.038Z,1016.11
2022-10-22T03:46:25.590Z,1016.11
2022-10-22T03:46:58.719Z,1016.10
2022-10-22T03:47:26.944Z,1016.09
2022-10-22T03:47:57.545Z,1016.10
2022-10-22T03:48:28.114Z,1016.11
2022-10-22T03:48:58.649Z,1016.12
2022-10-22T03:49:29.225Z,1016.13
2022-10-22T03:49:59.806Z,1016.13
2022-10-22T03:50:30.378Z,1016.15
2022-10-22T03:51:00.956Z,1016.15
2022-10-22T03:51:31.496Z,1016.15
2022-10-22T03:52:02.060Z,1016.16
2022-10-22T03:52:32.608Z,1016.17
2022-10-22T03:53:03.184Z,1016.19
2022-10-22T03:53:33.747Z,1016.21
2022-10-22T03:54:04.326Z,1016.21
2022-10-22T03:54:34.956Z,1016.23
2022-10-22T03:55:05.541Z,1016.24
2022-10-22T03:55:36.123Z,1016.24
2022-10-22T03:56:06.707Z,1016.24
2022-10-22T03:56:37.278Z,1016.21
2022-10-22T03:57:07.834Z,1016.20
2022-10-22T03:57:38.622Z,1016.17
2022-10-22T03:58:09.421Z,1016.16
2022-10-22T03:58:39.961Z,1016.15
2022-10-22T03:59:10.532Z,1016.12
2022-10-22T03:59:41.116Z,1016.12
2022-10-22T04:00:11.686Z,1016.12
2022-10-22T04:00:42.427Z,1016.12
2022-10-22T04:01:13.085Z,1016.14
2022-10-22T04:01:43.716Z,1016.14
2022-10-22T04:02:14.256Z,1016.15
2022-10-22T04:02:44.840Z,1016.17
2022-10-22T04:03:15.392Z,1016.18
2022-10-22T04:03:45.967Z,1016.20
2022-10-22T04:04:16.536Z,1016.20
2022-10-22T04:04:47.109Z,1016.21
2022-10-22T04:05:17.660Z,1016.22
2022-10-22T04:05:48.221Z,1016.22
2022-10-22T04:06:18.834Z,1016.24
2022-10-22T04:06:49.384Z,1016.25
2022-10-22T04:07:19.925Z,1016.26
2022-10-22T04:07:50.481Z,1016.28
2022-10-22T04:08:21.045Z,1016.30
2022-10-22T04:08:51.685Z,1016.31
2022-10-22T04:09:22.267Z,1016.32
2022-10-22T04:09:52.828Z,1016.34
2022-10-22T04:10:23.393Z,1016.35
2022-10-22T04:10:53.969Z,1016.35
2022-10-22T04:11:24.547Z,1016.36
2022-10-22T04:11:55.140Z,1016.38
2022-10-22T04:12:25.689Z,1016.39
2022-10-22T04:12:56.268Z,1016.42
2022-10-22T04:13:26.852Z,1016.44
2022-10-22T04:13:57.429Z,1016.46
2022-10-22T04:14:28.015Z,1016.48
2022-10-22T04:14:58.593Z,1016.50
2022-10-22T04:15:29.135Z,1016.52
2022-10-22T04:15:59.720Z,1016.53
2022-10-22T04:16:30.682Z,1016.55
2022-10-22T04:17:01.223Z,1016.57
2022-10-22T04:17:31.773Z,1016.60
2022-10-22T04:18:02.353Z,1016.61
2022-10-22T04:18:32.919Z,1016.64
2022-10-22T04:19:03.464Z,1016.67
2022-10-22T04:19:34.037Z,1016.69
2022-10-22T04:20:04.602Z,1016.71
2022-10-22T04:20:35.203Z,1016.73
2022-10-22T04:21:05.794Z,1016.74
2022-10-22T04:21:36.392Z,1016.74
2022-10-22T04:22:06.922Z,1016.74
2022-10-22T04:22:37.457Z,1016.74
2022-10-22T04:23:08.031Z,1016.74
2022-10-22T04:23:38.603Z,1016.73
2022-10-22T04:24:09.180Z,1016.72
2022-10-22T04:24:39.881Z,1016.72
2022-10-22T04:25:10.439Z,1016.72
2022-10-22T04:25:41.019Z,1016.73
2022-10-22T04:26:11.591Z,1016.74
2022-10-22T04:26:42.174Z,1016.75
2022-10-22T04:27:12.782Z,1016.76
2022-10-22T04:27:43.556Z,1016.76
2022-10-22T04:28:14.147Z,1016.77
2022-10-22T04:28:44.780Z,1016.75
2022-10-22T04:29:16.374Z,1016.76
2022-10-22T04:29:46.079Z,1016.75
2022-10-22T04:30:16.647Z,1016.75
2022-10-22T04:30:47.244Z,1016.75
2022-10-22T04:31:17.817Z,1016.74
2022-10-22T04:31:48.354Z,1016.73
2022-10-22T04:32:18.939Z,1016.72
2022-10-22T04:32:49.499Z,1016.73
2022-10-22T04:33:20.062Z,1016.72
2022-10-22T04:33:50.639Z,1016.73
2022-10-22T04:34:21.227Z,1016.75
2022-10-22T04:34:51.802Z,1016.75
2022-10-22T04:35:22.400Z,1016.76
2022-10-22T04:35:53.002Z,1016.77
2022-10-22T04:36:23.605Z,1016.78
2022-10-22T04:36:54.198Z,1016.77
2022-10-22T04:37:24.738Z,1016.76
2022-10-22T04:37:55.285Z,1016.75
2022-10-22T04:38:25.828Z,1016.74
2022-10-22T04:38:56.623Z,1016.73
2022-10-22T04:39:27.142Z,1016.71
2022-10-22T04:39:58.293Z,1016.71
2022-10-22T04:40:28.481Z,1016.70
2022-10-22T04:40:59.061Z,1016.71
2022-10-22T04:41:29.665Z,1016.74
2022-10-22T04:42:00.238Z,1016.75
2022-10-22T04:42:30.813Z,1016.76
2022-10-22T04:43:01.400Z,1016.76
2022-10-22T04:43:31.974Z,1016.77
2022-10-22T04:44:02.551Z,1016.75
2022-10-22T04:44:33.167Z,1016.75
2022-10-22T04:45:03.727Z,1016.75
2022-10-22T04:45:34.282Z,1016.75
2022-10-22T04:46:04.860Z,1016.75
2022-10-22T04:46:35.456Z,1016.73
2022-10-22T04:47:06.016Z,1016.74
2022-10-22T04:47:36.600Z,1016.74
2022-10-22T04:48:07.173Z,1016.75
2022-10-22T04:48:37.725Z,1016.76
2022-10-22T04:49:08.322Z,1016.78
2022-10-22T04:49:38.891Z,1016.78
2022-10-22T04:50:09.430Z,1016.79
2022-10-22T04:50:40.016Z,1016.79
2022-10-22T04:51:10.580Z,1016.81
2022-10-22T04:51:41.123Z,1016.81
2022-10-22T04:52:11.696Z,1016.80
2022-10-22T04:52:42.245Z,1016.80
2022-10-22T04:53:12.792Z,1016.79
2022-10-22T04:53:43.363Z,1016.77
2022-10-22T04:54:15.073Z,1016.74
2022-10-22T04:54:44.782Z,1016.72
2022-10-22T04:55:15.360Z,1016.71
2022-10-22T04:55:45.925Z,1016.71
2022-10-22T04:56:16.505Z,1016.69
2022-10-22T04:56:47.070Z,1016.66
2022-10-22T04:57:17.640Z,1016.67
2022-10-22T04:57:48.231Z,1016.66
2022-10-22T04:58:18.797Z,1016.70
2022-10-22T04:58:49.375Z,1016.67
2022-10-22T04:59:19.915Z,1016.64
2022-10-22T04:59:50.489Z,1016.66
2022-10-22T05:00:21.059Z,1016.64
2022-10-22T05:00:51.695Z,1016.65
2022-10-22T05:01:22.304Z,1016.63
2022-10-22T05:01:52.879Z,1016.63
2022-10-22T05:02:23.423Z,1016.63
2022-10-22T05:02:53.946Z,1016.62
2022-10-22T05:03:24.513Z,1016.62
2022-10-22T05:03:55.086Z,1016.60
2022-10-22T05:04:25.678Z,1016.60
2022-10-22T05:04:56.254Z,1016.56
2022-10-22T05:05:26.839Z,1016.54
2022-10-22T05:05:57.410Z,1016.53
2022-10-22T05:06:27.983Z,1016.51
2022-10-22T05:06:58.558Z,1016.50
2022-10-22T05:07:29.153Z,1016.49
2022-10-22T05:07:59.691Z,1016.47
2022-10-22T05:08:30.414Z,1016.48
2022-10-22T05:09:01.145Z,1016.49
2022-10-22T05:09:31.731Z,1016.51
2022-10-22T05:10:02.323Z,1016.53
2022-10-22T05:10:32.894Z,1016.53
2022-10-22T05:11:03.449Z,1016.53
2022-10-22T05:11:34.035Z,1016.53
2022-10-22T05:12:04.585Z,1016.53
2022-10-22T05:12:35.126Z,1016.52
2022-10-22T05:13:05.690Z,1016.52
2022-10-22T05:13:36.267Z,1016.52
2022-10-22T05:14:06.826Z,1016.51
2022-10-22T05:14:41.284Z,1016.51
2022-10-22T05:15:08.211Z,1016.51
2022-10-22T05:15:38.767Z,1016.49
2022-10-22T05:16:09.342Z,1016.49
2022-10-22T05:16:39.997Z,1016.48
2022-10-22T05:17:10.704Z,1016.47
2022-10-22T05:17:41.528Z,1016.46
2022-10-22T05:18:11.784Z,1016.45
2022-10-22T05:18:42.327Z,1016.42
2022-10-22T05:19:12.890Z,1016.41
2022-10-22T05:19:43.440Z,1016.37
2022-10-22T05:20:13.994Z,1016.36
2022-10-22T05:20:44.565Z,1016.34
2022-10-22T05:21:15.119Z,1016.33
2022-10-22T05:21:45.683Z,1016.31
2022-10-22T05:22:16.259Z,1016.30
2022-10-22T05:22:46.861Z,1016.30
2022-10-22T05:23:17.393Z,1016.31
2022-10-22T05:23:47.972Z,1016.31
2022-10-22T05:24:18.525Z,1016.31
2022-10-22T05:24:49.175Z,1016.31
2022-10-22T05:25:19.821Z,1016.30
2022-10-22T05:25:50.345Z,1016.30
2022-10-22T05:26:20.913Z,1016.29
2022-10-22T05:26:51.473Z,1016.30
2022-10-22T05:27:22.047Z,1016.29
2022-10-22T05:27:52.885Z,1016.27
2022-10-22T05:28:23.375Z,1016.27
2022-10-22T05:28:53.898Z,1016.21
2022-10-22T05:29:24.968Z,1016.18
2022-10-22T05:29:55.535Z,1016.15
2022-10-22T05:30:26.062Z,1016.11
2022-10-22T05:30:56.626Z,1016.10
2022-10-22T05:31:27.163Z,1016.08
2022-10-22T05:31:58.187Z,1016.07
2022-10-22T05:32:28.730Z,1016.08
2022-10-22T05:32:59.241Z,1016.07
2022-10-22T05:33:30.270Z,1016.06
2022-10-22T05:34:01.336Z,1016.07
2022-10-22T05:34:31.899Z,1016.08
2022-10-22T05:35:02.434Z,1016.11
2022-10-22T05:35:33.439Z,1016.16
2022-10-22T05:36:04.452Z,1016.20
2022-10-22T05:36:35.543Z,1016.23
2022-10-22T05:37:06.103Z,1016.26
2022-10-22T05:37:36.618Z,1016.27
2022-10-22T05:38:07.174Z,1016.26
2022-10-22T05:38:38.183Z,1016.25
2022-10-22T05:39:09.206Z,1016.23
2022-10-22T05:39:40.247Z,1016.21
2022-10-22T05:40:26.625Z,1016.21
2022-10-22T05:40:41.493Z,1016.17
2022-10-22T05:41:12.014Z,1016.15
2022-10-22T05:41:42.548Z,1016.11
2022-10-22T05:42:13.056Z,1016.08
2022-10-22T05:42:44.058Z,1016.04
2022-10-22T05:43:15.069Z,1016.01
2022-10-22T05:43:46.087Z,1015.99
2022-10-22T05:44:16.619Z,1015.98
2022-10-22T05:44:47.140Z,1015.99
2022-10-22T05:45:17.660Z,1015.98
2022-10-22T05:45:48.179Z,1016.00
2022-10-22T05:46:22.541Z,1016.02
2022-10-22T05:46:49.921Z,1016.03
2022-10-22T05:47:20.497Z,1016.06
2022-10-22T05:47:51.001Z,1016.09
2022-10-22T05:48:21.625Z,1016.11
2022-10-22T05:48:52.159Z,1016.14
2022-10-22T05:49:22.679Z,1016.16
2022-10-22T05:49:53.202Z,1016.17
2022-10-22T05:50:23.721Z,1016.20
2022-10-22T05:50:54.759Z,1016.22
2022-10-22T05:51:25.814Z,1016.22
2022-10-22T05:51:56.315Z,1016.23
2022-10-22T05:52:27.315Z,1016.24
2022-10-22T05:52:57.834Z,1016.26
2022-10-22T05:53:28.885Z,1016.26
2022-10-22T05:53:59.382Z,1016.27
2022-10-22T05:54:30.395Z,1016.28
2022-10-22T05:55:00.922Z,1016.31
2022-10-22T05:55:31.947Z,1016.32
2022-10-22T05:56:02.970Z,1016.33
2022-10-22T05:56:34.023Z,1016.35
2022-10-22T05:57:04.547Z,1016.35
2022-10-22T05:57:35.575Z,1016.36
2022-10-22T05:58:06.667Z,1016.37
2022-10-22T05:58:37.186Z,1016.39
2022-10-22T05:59:08.220Z,1016.42
2022-10-22T05:59:39.250Z,1016.44
2022-10-22T06:00:11.706Z,1016.45
2022-10-22T06:00:40.566Z,1016.47
2022-10-22T06:01:11.090Z,1016.48
2022-10-22T06:01:41.613Z,1016.50
2022-10-22T06:02:12.705Z,1016.50
2022-10-22T06:02:43.365Z,1016.52
2022-10-22T06:03:13.901Z,1016.53
2022-10-22T06:03:44.432Z,1016.55
2022-10-22T06:04:14.956Z,1016.58
2022-10-22T06:04:45.995Z,1016.59
2022-10-22T06:05:16.535Z,1016.62
2022-10-22T06:05:47.539Z,1016.65
2022-10-22T06:06:18.572Z,1016.68
2022-10-22T06:06:49.637Z,1016.72
2022-10-22T06:07:20.152Z,1016.76
2022-10-22T06:07:51.181Z,1016.80
2022-10-22T06:08:21.703Z,1016.84
2022-10-22T06:08:52.856Z,1016.85
2022-10-22T06:09:23.473Z,1016.87
2022-10-22T06:09:54.010Z,1016.88
2022-10-22T06:10:24.521Z,1016.88
2022-10-22T06:10:55.547Z,1016.89
2022-10-22T06:11:28.884Z,1016.91